sensor_id;sensor_type;location;lat;lon;timestamp;temperature;humidity
21950;DHT22;11139;51.284;7.226;2023-05-28T00:02:19;14.60;99.90
21950;DHT22;11139;51.284;7.226;2023-05-28T00:04:44;14.60;99.90
21950;DHT22;11139;51.284;7.226;2023-05-28T00:07:10;14.60;99.90
21950;DHT22;11139;51.284;7.226;2023-05-28T00:09:38;14.50;99.90
21950;DHT22;11139;51.284;7.226;2023-05-28T00:12:06;14.50;99.90
21950;DHT22;11139;51.284;7.226;2023-05-28T00:14:32;14.50;99.90
21950;DHT22;11139;51.284;7.226;2023-05-28T00:16:58;14.50;99.90
21950;DHT22;11139;51.284;7.226;2023-05-28T00:19:23;14.50;99.90
21950;DHT22;11139;51.284;7.226;2023-05-28T00:21:49;14.50;99.90
21950;DHT22;11139;51.284;7.226;2023-05-28T00:24:14;14.50;99.90
21950;DHT22;11139;51.284;7.226;2023-05-28T00:26:40;14.50;99.90
21950;DHT22;11139;51.284;7.226;2023-05-28T00:29:05;14.50;99.90
21950;DHT22;11139;51.284;7.226;2023-05-28T00:31:31;14.40;99.90
21950;DHT22;11139;51.284;7.226;2023-05-28T00:33:56;14.40;99.90
21950;DHT22;11139;51.284;7.226;2023-05-28T00:36:22;14.40;99.90
21950;DHT22;11139;51.284;7.226;2023-05-28T00:38:47;14.40;99.90
21950;DHT22;11139;51.284;7.226;2023-05-28T00:41:18;14.40;99.90
21950;DHT22;11139;51.284;7.226;2023-05-28T00:43:43;14.40;99.90
21950;DHT22;11139;51.284;7.226;2023-05-28T00:46:09;14.40;99.90
21950;DHT22;11139;51.284;7.226;2023-05-28T00:48:35;14.30;99.90
21950;DHT22;11139;51.284;7.226;2023-05-28T00:51:01;14.30;99.90
21950;DHT22;11139;51.284;7.226;2023-05-28T00:53:27;14.30;99.90
21950;DHT22;11139;51.284;7.226;2023-05-28T00:55:53;14.30;99.90
21950;DHT22;11139;51.284;7.226;2023-05-28T00:58:18;14.30;99.90
21950;DHT22;11139;51.284;7.226;2023-05-28T01:00:45;14.30;99.90
21950;DHT22;11139;51.284;7.226;2023-05-28T01:03:14;14.30;99.90
21950;DHT22;11139;51.284;7.226;2023-05-28T01:05:39;14.30;99.90
21950;DHT22;11139;51.284;7.226;2023-05-28T01:08:05;14.30;99.90
21950;DHT22;11139;51.284;7.226;2023-05-28T01:10:34;14.30;99.90
21950;DHT22;11139;51.284;7.226;2023-05-28T01:13:00;14.20;99.90
21950;DHT22;11139;51.284;7.226;2023-05-28T01:15:26;14.20;99.90
21950;DHT22;11139;51.284;7.226;2023-05-28T01:17:55;14.20;99.90
21950;DHT22;11139;51.284;7.226;2023-05-28T01:20:23;14.20;99.90
21950;DHT22;11139;51.284;7.226;2023-05-28T01:22:52;14.20;99.90
21950;DHT22;11139;51.284;7.226;2023-05-28T01:25:19;14.20;99.90
21950;DHT22;11139;51.284;7.226;2023-05-28T01:27:44;14.20;99.90
21950;DHT22;11139;51.284;7.226;2023-05-28T01:30:10;14.20;99.90
21950;DHT22;11139;51.284;7.226;2023-05-28T01:32:37;14.20;99.90
21950;DHT22;11139;51.284;7.226;2023-05-28T01:35:03;14.20;99.90
21950;DHT22;11139;51.284;7.226;2023-05-28T01:37:29;14.20;99.90
21950;DHT22;11139;51.284;7.226;2023-05-28T01:39:56;14.10;99.90
21950;DHT22;11139;51.284;7.226;2023-05-28T01:42:22;14.10;99.90
21950;DHT22;11139;51.284;7.226;2023-05-28T01:44:48;14.10;99.90
21950;DHT22;11139;51.284;7.226;2023-05-28T01:47:15;14.10;99.90
21950;DHT22;11139;51.284;7.226;2023-05-28T01:49:40;14.10;99.90
21950;DHT22;11139;51.284;7.226;2023-05-28T01:52:06;14.10;99.90
21950;DHT22;11139;51.284;7.226;2023-05-28T01:54:33;14.10;99.90
21950;DHT22;11139;51.284;7.226;2023-05-28T01:56:58;14.10;99.90
21950;DHT22;11139;51.284;7.226;2023-05-28T01:59:30;14.10;99.90
21950;DHT22;11139;51.284;7.226;2023-05-28T02:01:59;14.10;99.90
21950;DHT22;11139;51.284;7.226;2023-05-28T02:04:31;14.10;99.90
21950;DHT22;11139;51.284;7.226;2023-05-28T02:09:54;14.10;99.90
21950;DHT22;11139;51.284;7.226;2023-05-28T02:15:07;14.00;99.90
21950;DHT22;11139;51.284;7.226;2023-05-28T02:17:33;14.00;99.90
21950;DHT22;11139;51.284;7.226;2023-05-28T02:19:59;14.00;99.90
21950;DHT22;11139;51.284;7.226;2023-05-28T02:22:24;14.00;99.90
21950;DHT22;11139;51.284;7.226;2023-05-28T02:24:50;14.00;99.90
21950;DHT22;11139;51.284;7.226;2023-05-28T02:27:15;14.00;99.90
21950;DHT22;11139;51.284;7.226;2023-05-28T02:29:42;13.90;99.90
21950;DHT22;11139;51.284;7.226;2023-05-28T02:32:08;13.90;99.90
21950;DHT22;11139;51.284;7.226;2023-05-28T02:34:34;13.90;99.90
21950;DHT22;11139;51.284;7.226;2023-05-28T02:36:59;13.90;99.90
21950;DHT22;11139;51.284;7.226;2023-05-28T02:39:26;13.90;99.90
21950;DHT22;11139;51.284;7.226;2023-05-28T02:41:51;13.90;99.90
21950;DHT22;11139;51.284;7.226;2023-05-28T02:44:17;13.90;99.90
21950;DHT22;11139;51.284;7.226;2023-05-28T02:46:42;13.90;99.90
21950;DHT22;11139;51.284;7.226;2023-05-28T02:49:08;13.90;99.90
21950;DHT22;11139;51.284;7.226;2023-05-28T02:51:33;13.90;99.90
21950;DHT22;11139;51.284;7.226;2023-05-28T02:53:59;13.90;99.90
21950;DHT22;11139;51.284;7.226;2023-05-28T02:56:24;13.90;99.90
21950;DHT22;11139;51.284;7.226;2023-05-28T02:58:50;13.90;99.90
21950;DHT22;11139;51.284;7.226;2023-05-28T03:01:16;13.90;99.90
21950;DHT22;11139;51.284;7.226;2023-05-28T03:03:42;13.80;99.90
21950;DHT22;11139;51.284;7.226;2023-05-28T03:06:07;13.80;99.90
21950;DHT22;11139;51.284;7.226;2023-05-28T03:08:33;13.80;99.90
21950;DHT22;11139;51.284;7.226;2023-05-28T03:10:58;13.80;99.90
21950;DHT22;11139;51.284;7.226;2023-05-28T03:13:24;13.80;99.90
21950;DHT22;11139;51.284;7.226;2023-05-28T03:15:49;13.80;99.90
21950;DHT22;11139;51.284;7.226;2023-05-28T03:18:15;13.80;99.90
21950;DHT22;11139;51.284;7.226;2023-05-28T03:20:40;13.80;99.90
21950;DHT22;11139;51.284;7.226;2023-05-28T03:23:06;13.80;99.90
21950;DHT22;11139;51.284;7.226;2023-05-28T03:25:31;13.70;99.90
21950;DHT22;11139;51.284;7.226;2023-05-28T03:27:57;13.70;99.90
21950;DHT22;11139;51.284;7.226;2023-05-28T03:30:22;13.70;99.90
21950;DHT22;11139;51.284;7.226;2023-05-28T03:32:48;13.70;99.90
21950;DHT22;11139;51.284;7.226;2023-05-28T03:35:14;13.70;99.90
21950;DHT22;11139;51.284;7.226;2023-05-28T03:37:40;13.70;99.90
21950;DHT22;11139;51.284;7.226;2023-05-28T03:40:06;13.60;99.90
21950;DHT22;11139;51.284;7.226;2023-05-28T03:42:32;13.60;99.90
21950;DHT22;11139;51.284;7.226;2023-05-28T03:44:58;13.70;99.90
21950;DHT22;11139;51.284;7.226;2023-05-28T03:47:23;13.60;99.90
21950;DHT22;11139;51.284;7.226;2023-05-28T03:49:50;13.60;99.90
21950;DHT22;11139;51.284;7.226;2023-05-28T03:52:15;13.60;99.90
21950;DHT22;11139;51.284;7.226;2023-05-28T03:54:41;13.70;99.90
21950;DHT22;11139;51.284;7.226;2023-05-28T03:57:06;13.60;99.90
21950;DHT22;11139;51.284;7.226;2023-05-28T03:59:32;13.60;99.90
21950;DHT22;11139;51.284;7.226;2023-05-28T04:01:57;13.60;99.90
21950;DHT22;11139;51.284;7.226;2023-05-28T04:04:22;13.60;99.90
21950;DHT22;11139;51.284;7.226;2023-05-28T04:06:48;13.60;99.90
21950;DHT22;11139;51.284;7.226;2023-05-28T04:09:13;13.60;99.90
21950;DHT22;11139;51.284;7.226;2023-05-28T04:11:39;13.60;99.90
21950;DHT22;11139;51.284;7.226;2023-05-28T04:14:05;13.50;99.90
21950;DHT22;11139;51.284;7.226;2023-05-28T04:16:31;13.50;99.90
21950;DHT22;11139;51.284;7.226;2023-05-28T04:18:57;13.60;99.90
21950;DHT22;11139;51.284;7.226;2023-05-28T04:21:23;13.60;99.90
21950;DHT22;11139;51.284;7.226;2023-05-28T04:23:48;13.50;99.90
21950;DHT22;11139;51.284;7.226;2023-05-28T04:26:14;13.50;99.90
21950;DHT22;11139;51.284;7.226;2023-05-28T04:28:40;13.50;99.90
21950;DHT22;11139;51.284;7.226;2023-05-28T04:31:06;13.50;99.90
21950;DHT22;11139;51.284;7.226;2023-05-28T04:33:31;13.50;99.90
21950;DHT22;11139;51.284;7.226;2023-05-28T04:35:57;13.50;99.90
21950;DHT22;11139;51.284;7.226;2023-05-28T04:38:23;13.50;99.90
21950;DHT22;11139;51.284;7.226;2023-05-28T04:40:49;13.50;99.90
21950;DHT22;11139;51.284;7.226;2023-05-28T04:43:15;13.50;99.90
21950;DHT22;11139;51.284;7.226;2023-05-28T04:45:41;13.50;99.90
21950;DHT22;11139;51.284;7.226;2023-05-28T04:48:06;13.50;99.90
21950;DHT22;11139;51.284;7.226;2023-05-28T04:50:32;13.50;99.90
21950;DHT22;11139;51.284;7.226;2023-05-28T04:52:58;13.50;99.90
21950;DHT22;11139;51.284;7.226;2023-05-28T04:55:23;13.50;99.90
21950;DHT22;11139;51.284;7.226;2023-05-28T04:57:49;13.50;99.90
21950;DHT22;11139;51.284;7.226;2023-05-28T05:00:15;13.50;99.90
21950;DHT22;11139;51.284;7.226;2023-05-28T05:02:40;13.50;99.90
21950;DHT22;11139;51.284;7.226;2023-05-28T05:05:09;13.60;99.90
21950;DHT22;11139;51.284;7.226;2023-05-28T05:07:35;13.50;99.90
21950;DHT22;11139;51.284;7.226;2023-05-28T05:10:01;13.50;99.90
21950;DHT22;11139;51.284;7.226;2023-05-28T05:12:26;13.50;99.90
21950;DHT22;11139;51.284;7.226;2023-05-28T05:14:51;13.50;99.90
21950;DHT22;11139;51.284;7.226;2023-05-28T05:17:17;13.50;99.90
21950;DHT22;11139;51.284;7.226;2023-05-28T05:19:42;13.50;99.90
21950;DHT22;11139;51.284;7.226;2023-05-28T05:22:08;13.50;99.90
21950;DHT22;11139;51.284;7.226;2023-05-28T05:24:33;13.50;99.90
21950;DHT22;11139;51.284;7.226;2023-05-28T05:26:59;13.50;99.90
21950;DHT22;11139;51.284;7.226;2023-05-28T05:29:24;13.50;99.90
21950;DHT22;11139;51.284;7.226;2023-05-28T05:31:50;13.50;99.90
21950;DHT22;11139;51.284;7.226;2023-05-28T05:34:16;13.60;99.90
21950;DHT22;11139;51.284;7.226;2023-05-28T05:36:41;13.50;99.90
21950;DHT22;11139;51.284;7.226;2023-05-28T05:39:07;13.50;99.90
21950;DHT22;11139;51.284;7.226;2023-05-28T05:41:33;13.50;99.90
21950;DHT22;11139;51.284;7.226;2023-05-28T05:43:59;13.50;99.90
21950;DHT22;11139;51.284;7.226;2023-05-28T05:46:24;13.60;99.90
21950;DHT22;11139;51.284;7.226;2023-05-28T05:48:50;13.60;99.90
21950;DHT22;11139;51.284;7.226;2023-05-28T05:51:15;13.60;99.90
21950;DHT22;11139;51.284;7.226;2023-05-28T05:53:43;13.60;99.90
21950;DHT22;11139;51.284;7.226;2023-05-28T05:56:09;13.60;99.90
21950;DHT22;11139;51.284;7.226;2023-05-28T05:58:35;13.60;99.90
21950;DHT22;11139;51.284;7.226;2023-05-28T06:01:00;13.60;99.90
21950;DHT22;11139;51.284;7.226;2023-05-28T06:03:26;13.60;99.90
21950;DHT22;11139;51.284;7.226;2023-05-28T06:05:53;13.60;99.90
21950;DHT22;11139;51.284;7.226;2023-05-28T06:08:18;13.60;99.90
21950;DHT22;11139;51.284;7.226;2023-05-28T06:10:44;13.60;99.90
21950;DHT22;11139;51.284;7.226;2023-05-28T06:13:10;13.60;99.90
21950;DHT22;11139;51.284;7.226;2023-05-28T06:15:35;13.70;99.90
21950;DHT22;11139;51.284;7.226;2023-05-28T06:18:02;13.70;99.90
21950;DHT22;11139;51.284;7.226;2023-05-28T06:20:28;13.70;99.90
21950;DHT22;11139;51.284;7.226;2023-05-28T06:22:54;13.80;99.90
21950;DHT22;11139;51.284;7.226;2023-05-28T06:25:21;13.80;99.90
21950;DHT22;11139;51.284;7.226;2023-05-28T06:27:47;13.80;99.90
21950;DHT22;11139;51.284;7.226;2023-05-28T06:30:13;13.80;99.90
21950;DHT22;11139;51.284;7.226;2023-05-28T06:32:40;13.80;99.90
21950;DHT22;11139;51.284;7.226;2023-05-28T06:35:06;13.80;99.90
21950;DHT22;11139;51.284;7.226;2023-05-28T06:37:31;13.90;99.90
21950;DHT22;11139;51.284;7.226;2023-05-28T06:39:57;13.80;99.90
21950;DHT22;11139;51.284;7.226;2023-05-28T06:42:22;13.90;99.90
21950;DHT22;11139;51.284;7.226;2023-05-28T06:44:48;13.90;99.90
21950;DHT22;11139;51.284;7.226;2023-05-28T06:47:13;13.90;99.90
21950;DHT22;11139;51.284;7.226;2023-05-28T06:49:39;13.90;99.90
21950;DHT22;11139;51.284;7.226;2023-05-28T06:52:05;14.00;99.90
21950;DHT22;11139;51.284;7.226;2023-05-28T06:54:30;14.00;99.90
21950;DHT22;11139;51.284;7.226;2023-05-28T06:56:56;14.00;99.90
21950;DHT22;11139;51.284;7.226;2023-05-28T06:59:21;14.00;99.90
21950;DHT22;11139;51.284;7.226;2023-05-28T07:01:47;14.00;99.90
21950;DHT22;11139;51.284;7.226;2023-05-28T07:04:12;14.10;99.90
21950;DHT22;11139;51.284;7.226;2023-05-28T07:06:37;14.10;99.90
21950;DHT22;11139;51.284;7.226;2023-05-28T07:09:03;14.10;99.90
21950;DHT22;11139;51.284;7.226;2023-05-28T07:11:29;14.10;99.90
21950;DHT22;11139;51.284;7.226;2023-05-28T07:13:55;14.20;99.90
21950;DHT22;11139;51.284;7.226;2023-05-28T07:16:20;14.20;99.90
21950;DHT22;11139;51.284;7.226;2023-05-28T07:18:46;14.20;99.90
21950;DHT22;11139;51.284;7.226;2023-05-28T07:21:12;14.20;99.90
21950;DHT22;11139;51.284;7.226;2023-05-28T07:23:37;14.30;99.90
21950;DHT22;11139;51.284;7.226;2023-05-28T07:26:03;14.30;99.90
21950;DHT22;11139;51.284;7.226;2023-05-28T07:28:28;14.30;99.90
21950;DHT22;11139;51.284;7.226;2023-05-28T07:30:54;14.30;99.90
21950;DHT22;11139;51.284;7.226;2023-05-28T07:33:19;14.40;99.90
21950;DHT22;11139;51.284;7.226;2023-05-28T07:35:45;14.40;99.90
21950;DHT22;11139;51.284;7.226;2023-05-28T07:38:11;14.40;99.90
21950;DHT22;11139;51.284;7.226;2023-05-28T07:40:38;14.40;99.90
21950;DHT22;11139;51.284;7.226;2023-05-28T07:43:03;14.40;99.90
21950;DHT22;11139;51.284;7.226;2023-05-28T07:45:29;14.40;99.90
21950;DHT22;11139;51.284;7.226;2023-05-28T07:47:54;14.50;99.90
21950;DHT22;11139;51.284;7.226;2023-05-28T07:50:20;14.50;99.90
21950;DHT22;11139;51.284;7.226;2023-05-28T07:52:45;14.50;99.90
21950;DHT22;11139;51.284;7.226;2023-05-28T07:55:11;14.50;99.90
21950;DHT22;11139;51.284;7.226;2023-05-28T07:57:36;14.50;99.90
21950;DHT22;11139;51.284;7.226;2023-05-28T08:00:02;14.60;99.90
21950;DHT22;11139;51.284;7.226;2023-05-28T08:02:32;14.60;99.90
21950;DHT22;11139;51.284;7.226;2023-05-28T08:04:58;14.60;99.90
21950;DHT22;11139;51.284;7.226;2023-05-28T08:07:24;14.60;99.90
21950;DHT22;11139;51.284;7.226;2023-05-28T08:09:50;14.60;99.90
21950;DHT22;11139;51.284;7.226;2023-05-28T08:12:16;14.60;99.90
21950;DHT22;11139;51.284;7.226;2023-05-28T08:14:41;14.70;99.90
21950;DHT22;11139;51.284;7.226;2023-05-28T08:17:07;14.60;99.90
21950;DHT22;11139;51.284;7.226;2023-05-28T08:19:32;14.60;99.90
21950;DHT22;11139;51.284;7.226;2023-05-28T08:21:58;14.60;99.90
21950;DHT22;11139;51.284;7.226;2023-05-28T08:24:23;14.70;99.90
21950;DHT22;11139;51.284;7.226;2023-05-28T08:26:49;14.70;99.90
21950;DHT22;11139;51.284;7.226;2023-05-28T08:29:14;14.70;99.90
21950;DHT22;11139;51.284;7.226;2023-05-28T08:31:40;14.70;99.90
21950;DHT22;11139;51.284;7.226;2023-05-28T08:34:05;14.80;99.90
21950;DHT22;11139;51.284;7.226;2023-05-28T08:36:31;14.70;99.90
21950;DHT22;11139;51.284;7.226;2023-05-28T08:38:56;14.80;99.90
21950;DHT22;11139;51.284;7.226;2023-05-28T08:41:23;14.80;99.90
21950;DHT22;11139;51.284;7.226;2023-05-28T08:43:48;14.80;99.90
21950;DHT22;11139;51.284;7.226;2023-05-28T08:46:16;14.80;99.90
21950;DHT22;11139;51.284;7.226;2023-05-28T08:48:42;14.80;99.90
21950;DHT22;11139;51.284;7.226;2023-05-28T08:51:07;14.80;99.90
21950;DHT22;11139;51.284;7.226;2023-05-28T08:53:36;14.80;99.90
21950;DHT22;11139;51.284;7.226;2023-05-28T08:56:04;14.90;99.90
21950;DHT22;11139;51.284;7.226;2023-05-28T08:58:30;14.80;99.90
21950;DHT22;11139;51.284;7.226;2023-05-28T09:00:55;14.90;99.90
21950;DHT22;11139;51.284;7.226;2023-05-28T09:03:21;14.90;99.90
21950;DHT22;11139;51.284;7.226;2023-05-28T09:05:46;14.90;99.90
21950;DHT22;11139;51.284;7.226;2023-05-28T09:08:12;14.90;99.90
21950;DHT22;11139;51.284;7.226;2023-05-28T09:10:38;14.90;99.90
21950;DHT22;11139;51.284;7.226;2023-05-28T09:13:04;14.90;99.90
21950;DHT22;11139;51.284;7.226;2023-05-28T09:15:33;14.90;99.90
21950;DHT22;11139;51.284;7.226;2023-05-28T09:18:01;15.00;99.90
21950;DHT22;11139;51.284;7.226;2023-05-28T09:20:27;15.00;99.90
21950;DHT22;11139;51.284;7.226;2023-05-28T09:23:02;15.00;99.90
21950;DHT22;11139;51.284;7.226;2023-05-28T09:25:29;15.00;99.90
21950;DHT22;11139;51.284;7.226;2023-05-28T09:27:58;15.00;99.90
21950;DHT22;11139;51.284;7.226;2023-05-28T09:30:24;15.00;99.90
21950;DHT22;11139;51.284;7.226;2023-05-28T09:32:56;15.00;99.90
21950;DHT22;11139;51.284;7.226;2023-05-28T09:35:25;15.00;99.90
21950;DHT22;11139;51.284;7.226;2023-05-28T09:38:04;15.10;99.90
21950;DHT22;11139;51.284;7.226;2023-05-28T09:40:36;15.10;99.90
21950;DHT22;11139;51.284;7.226;2023-05-28T09:43:03;15.10;99.90
21950;DHT22;11139;51.284;7.226;2023-05-28T09:45:29;15.10;99.90
21950;DHT22;11139;51.284;7.226;2023-05-28T09:47:54;15.10;99.90
21950;DHT22;11139;51.284;7.226;2023-05-28T09:50:20;15.10;99.90
21950;DHT22;11139;51.284;7.226;2023-05-28T09:52:46;15.10;99.90
21950;DHT22;11139;51.284;7.226;2023-05-28T09:55:13;15.10;99.90
21950;DHT22;11139;51.284;7.226;2023-05-28T09:57:39;15.20;99.90
21950;DHT22;11139;51.284;7.226;2023-05-28T10:00:07;15.10;99.90
21950;DHT22;11139;51.284;7.226;2023-05-28T10:05:06;15.20;99.90
21950;DHT22;11139;51.284;7.226;2023-05-28T10:07:32;15.20;99.90
21950;DHT22;11139;51.284;7.226;2023-05-28T10:09:58;15.20;99.90
21950;DHT22;11139;51.284;7.226;2023-05-28T10:12:25;15.20;99.90
21950;DHT22;11139;51.284;7.226;2023-05-28T10:14:53;15.20;99.90
21950;DHT22;11139;51.284;7.226;2023-05-28T10:17:19;15.20;99.90
21950;DHT22;11139;51.284;7.226;2023-05-28T10:19:46;15.30;99.90
21950;DHT22;11139;51.284;7.226;2023-05-28T10:22:12;15.30;99.90
21950;DHT22;11139;51.284;7.226;2023-05-28T10:24:37;15.30;99.90
21950;DHT22;11139;51.284;7.226;2023-05-28T10:27:06;15.30;99.90
21950;DHT22;11139;51.284;7.226;2023-05-28T10:29:42;15.30;99.90
21950;DHT22;11139;51.284;7.226;2023-05-28T10:32:08;15.40;99.90
21950;DHT22;11139;51.284;7.226;2023-05-28T10:34:35;15.40;99.90
21950;DHT22;11139;51.284;7.226;2023-05-28T10:37:05;15.40;99.90
21950;DHT22;11139;51.284;7.226;2023-05-28T10:39:40;15.50;99.90
21950;DHT22;11139;51.284;7.226;2023-05-28T10:42:06;15.50;99.90
21950;DHT22;11139;51.284;7.226;2023-05-28T10:44:48;15.50;99.90
21950;DHT22;11139;51.284;7.226;2023-05-28T10:47:13;15.50;99.90
21950;DHT22;11139;51.284;7.226;2023-05-28T10:49:48;15.50;99.90
21950;DHT22;11139;51.284;7.226;2023-05-28T10:52:22;15.50;99.90
21950;DHT22;11139;51.284;7.226;2023-05-28T10:54:48;15.60;99.90
21950;DHT22;11139;51.284;7.226;2023-05-28T10:57:16;15.60;99.90
21950;DHT22;11139;51.284;7.226;2023-05-28T10:59:47;15.60;99.90
21950;DHT22;11139;51.284;7.226;2023-05-28T11:02:16;15.60;99.90
21950;DHT22;11139;51.284;7.226;2023-05-28T11:04:42;15.60;99.90
21950;DHT22;11139;51.284;7.226;2023-05-28T11:07:07;15.70;99.90
21950;DHT22;11139;51.284;7.226;2023-05-28T11:09:33;15.70;99.90
21950;DHT22;11139;51.284;7.226;2023-05-28T11:12:00;15.70;99.90
21950;DHT22;11139;51.284;7.226;2023-05-28T11:14:34;15.80;99.90
21950;DHT22;11139;51.284;7.226;2023-05-28T11:16:59;15.80;99.90
21950;DHT22;11139;51.284;7.226;2023-05-28T11:19:25;15.80;99.90
21950;DHT22;11139;51.284;7.226;2023-05-28T11:21:51;15.80;99.90
21950;DHT22;11139;51.284;7.226;2023-05-28T11:24:17;15.80;99.90
21950;DHT22;11139;51.284;7.226;2023-05-28T11:26:42;15.80;99.90
21950;DHT22;11139;51.284;7.226;2023-05-28T11:29:08;15.90;99.90
21950;DHT22;11139;51.284;7.226;2023-05-28T11:31:38;15.90;99.90
21950;DHT22;11139;51.284;7.226;2023-05-28T11:34:04;15.90;99.90
21950;DHT22;11139;51.284;7.226;2023-05-28T11:36:30;15.90;99.90
21950;DHT22;11139;51.284;7.226;2023-05-28T11:39:03;15.90;99.90
21950;DHT22;11139;51.284;7.226;2023-05-28T11:41:29;16.00;99.90
21950;DHT22;11139;51.284;7.226;2023-05-28T11:43:54;16.10;99.90
21950;DHT22;11139;51.284;7.226;2023-05-28T11:46:21;16.10;99.90
21950;DHT22;11139;51.284;7.226;2023-05-28T11:48:47;16.10;99.90
21950;DHT22;11139;51.284;7.226;2023-05-28T11:51:13;16.10;99.90
21950;DHT22;11139;51.284;7.226;2023-05-28T11:53:39;16.10;99.90
21950;DHT22;11139;51.284;7.226;2023-05-28T11:56:05;16.10;99.90
21950;DHT22;11139;51.284;7.226;2023-05-28T11:58:30;16.20;99.90
21950;DHT22;11139;51.284;7.226;2023-05-28T12:00:56;16.20;99.90
21950;DHT22;11139;51.284;7.226;2023-05-28T12:03:25;16.20;99.90
21950;DHT22;11139;51.284;7.226;2023-05-28T12:05:50;16.20;99.90
21950;DHT22;11139;51.284;7.226;2023-05-28T12:08:17;16.20;99.90
21950;DHT22;11139;51.284;7.226;2023-05-28T12:10:43;16.20;99.90
21950;DHT22;11139;51.284;7.226;2023-05-28T12:13:08;16.30;99.90
21950;DHT22;11139;51.284;7.226;2023-05-28T12:15:37;16.20;99.90
21950;DHT22;11139;51.284;7.226;2023-05-28T12:18:02;16.30;99.90
21950;DHT22;11139;51.284;7.226;2023-05-28T12:25:25;16.40;99.90
21950;DHT22;11139;51.284;7.226;2023-05-28T12:27:51;16.40;99.90
21950;DHT22;11139;51.284;7.226;2023-05-28T12:30:16;16.40;99.90
21950;DHT22;11139;51.284;7.226;2023-05-28T12:32:42;16.40;99.90
21950;DHT22;11139;51.284;7.226;2023-05-28T12:35:08;16.50;99.90
21950;DHT22;11139;51.284;7.226;2023-05-28T12:37:33;16.50;99.90
21950;DHT22;11139;51.284;7.226;2023-05-28T12:39:59;16.60;99.90
21950;DHT22;11139;51.284;7.226;2023-05-28T12:42:24;16.60;99.90
21950;DHT22;11139;51.284;7.226;2023-05-28T12:44:50;16.60;99.90
21950;DHT22;11139;51.284;7.226;2023-05-28T12:47:15;16.60;99.90
21950;DHT22;11139;51.284;7.226;2023-05-28T12:49:41;16.70;99.90
21950;DHT22;11139;51.284;7.226;2023-05-28T12:52:06;16.60;99.90
21950;DHT22;11139;51.284;7.226;2023-05-28T12:54:32;16.70;99.90
21950;DHT22;11139;51.284;7.226;2023-05-28T12:56:58;16.70;99.90
21950;DHT22;11139;51.284;7.226;2023-05-28T12:59:25;16.70;99.90
21950;DHT22;11139;51.284;7.226;2023-05-28T13:01:50;16.70;99.90
21950;DHT22;11139;51.284;7.226;2023-05-28T13:04:16;16.70;99.90
21950;DHT22;11139;51.284;7.226;2023-05-28T13:06:42;16.70;99.90
21950;DHT22;11139;51.284;7.226;2023-05-28T13:09:08;16.80;99.90
21950;DHT22;11139;51.284;7.226;2023-05-28T13:11:38;16.80;99.90
21950;DHT22;11139;51.284;7.226;2023-05-28T13:14:03;16.80;99.90
21950;DHT22;11139;51.284;7.226;2023-05-28T13:16:29;16.80;99.90
21950;DHT22;11139;51.284;7.226;2023-05-28T13:18:54;16.80;99.90
21950;DHT22;11139;51.284;7.226;2023-05-28T13:21:21;16.90;99.90
21950;DHT22;11139;51.284;7.226;2023-05-28T13:23:47;16.90;99.90
21950;DHT22;11139;51.284;7.226;2023-05-28T13:26:12;16.90;99.90
21950;DHT22;11139;51.284;7.226;2023-05-28T13:28:38;17.00;99.90
21950;DHT22;11139;51.284;7.226;2023-05-28T13:31:04;17.00;99.90
21950;DHT22;11139;51.284;7.226;2023-05-28T13:33:29;17.00;99.90
21950;DHT22;11139;51.284;7.226;2023-05-28T13:35:55;17.00;99.90
21950;DHT22;11139;51.284;7.226;2023-05-28T13:38:20;17.00;99.90
21950;DHT22;11139;51.284;7.226;2023-05-28T13:40:46;17.10;99.90
21950;DHT22;11139;51.284;7.226;2023-05-28T13:43:12;17.10;99.90
21950;DHT22;11139;51.284;7.226;2023-05-28T13:45:39;17.10;99.90
21950;DHT22;11139;51.284;7.226;2023-05-28T13:48:05;17.10;99.90
21950;DHT22;11139;51.284;7.226;2023-05-28T13:50:31;17.10;99.90
21950;DHT22;11139;51.284;7.226;2023-05-28T13:52:56;17.10;99.90
21950;DHT22;11139;51.284;7.226;2023-05-28T13:55:22;17.10;99.90
21950;DHT22;11139;51.284;7.226;2023-05-28T13:57:48;17.20;99.90
21950;DHT22;11139;51.284;7.226;2023-05-28T14:00:14;17.20;99.90
21950;DHT22;11139;51.284;7.226;2023-05-28T14:02:41;17.20;99.90
21950;DHT22;11139;51.284;7.226;2023-05-28T14:05:06;17.20;99.90
21950;DHT22;11139;51.284;7.226;2023-05-28T14:07:32;17.20;99.90
21950;DHT22;11139;51.284;7.226;2023-05-28T14:09:57;17.20;99.90
21950;DHT22;11139;51.284;7.226;2023-05-28T14:12:23;17.20;99.90
21950;DHT22;11139;51.284;7.226;2023-05-28T14:14:49;17.20;99.90
21950;DHT22;11139;51.284;7.226;2023-05-28T14:17:14;17.20;99.90
21950;DHT22;11139;51.284;7.226;2023-05-28T14:19:40;17.30;99.90
21950;DHT22;11139;51.284;7.226;2023-05-28T14:22:05;17.30;99.90
21950;DHT22;11139;51.284;7.226;2023-05-28T14:24:31;17.30;99.90
21950;DHT22;11139;51.284;7.226;2023-05-28T14:26:56;17.30;99.90
21950;DHT22;11139;51.284;7.226;2023-05-28T14:29:22;17.30;99.90
21950;DHT22;11139;51.284;7.226;2023-05-28T14:31:47;17.30;99.90
21950;DHT22;11139;51.284;7.226;2023-05-28T14:34:13;17.30;99.90
21950;DHT22;11139;51.284;7.226;2023-05-28T14:36:38;17.30;99.90
21950;DHT22;11139;51.284;7.226;2023-05-28T14:39:04;17.30;99.90
21950;DHT22;11139;51.284;7.226;2023-05-28T14:41:30;17.40;99.90
21950;DHT22;11139;51.284;7.226;2023-05-28T14:43:56;17.30;99.90
21950;DHT22;11139;51.284;7.226;2023-05-28T14:46:21;17.40;99.90
21950;DHT22;11139;51.284;7.226;2023-05-28T14:48:46;17.40;99.90
21950;DHT22;11139;51.284;7.226;2023-05-28T14:51:12;17.40;99.90
21950;DHT22;11139;51.284;7.226;2023-05-28T14:53:38;17.50;99.90
21950;DHT22;11139;51.284;7.226;2023-05-28T14:56:03;17.50;99.90
21950;DHT22;11139;51.284;7.226;2023-05-28T14:58:29;17.60;99.90
21950;DHT22;11139;51.284;7.226;2023-05-28T15:00:56;17.60;99.90
21950;DHT22;11139;51.284;7.226;2023-05-28T15:03:21;17.60;99.90
21950;DHT22;11139;51.284;7.226;2023-05-28T15:05:47;17.70;99.90
21950;DHT22;11139;51.284;7.226;2023-05-28T15:08:12;17.70;99.90
21950;DHT22;11139;51.284;7.226;2023-05-28T15:10:40;17.70;99.90
21950;DHT22;11139;51.284;7.226;2023-05-28T15:13:06;17.70;99.90
21950;DHT22;11139;51.284;7.226;2023-05-28T15:15:31;17.70;99.90
21950;DHT22;11139;51.284;7.226;2023-05-28T15:17:57;17.80;99.90
21950;DHT22;11139;51.284;7.226;2023-05-28T15:20:22;17.80;99.90
21950;DHT22;11139;51.284;7.226;2023-05-28T15:22:48;17.80;99.90
21950;DHT22;11139;51.284;7.226;2023-05-28T15:25:13;17.70;99.90
21950;DHT22;11139;51.284;7.226;2023-05-28T15:27:39;17.80;99.90
21950;DHT22;11139;51.284;7.226;2023-05-28T15:30:05;17.80;99.90
21950;DHT22;11139;51.284;7.226;2023-05-28T15:32:31;17.80;99.90
21950;DHT22;11139;51.284;7.226;2023-05-28T15:34:58;17.70;99.90
21950;DHT22;11139;51.284;7.226;2023-05-28T15:37:23;17.70;99.90